Terminal Aerodrome Forecast
Issued by NWS Melbourne, FL

Home | Current Version | Previous Version | Text Only | Print | Product List | Glossary On
Versions: 1 2 3 4 5 6 7 8 9 10 11 12 13 14 15 16 17 18
000
FTUS42 KMLB 211721
TAFVRB
TAF
KVRB 211721Z 2118/2218 13013G19KT P6SM VCSH SCT025 BKN035 BKN080
      TEMPO 2118/2120 5SM SHRA BKN025
     FM212100 13010KT P6SM -RA SCT025 BKN035 OVC050
     FM220000 11007KT P6SM VCSH SCT020 BKN040 OVC060
     FM221400 13011KT P6SM VCSH SCT025 BKN040 OVC070=

USA.gov is the U.S. government's official web portal to all federal, state and local government web resources and services.